sensor_id;sensor_type;location;lat;lon;timestamp;pressure;altitude;pressure_sealevel;temperature;humidity
19114;BME280;9689;51.052;13.772;2022-09-09T00:02:27;99801.50;;;14.31;89.66
19114;BME280;9689;51.052;13.772;2022-09-09T00:07:39;99812.56;;;14.35;90.52
19114;BME280;9689;51.052;13.772;2022-09-09T00:12:49;99805.34;;;14.19;90.68
19114;BME280;9689;51.052;13.772;2022-09-09T00:17:56;99808.31;;;14.08;91.49
19114;BME280;9689;51.052;13.772;2022-09-09T00:23:04;99808.56;;;14.00;92.06
19114;BME280;9689;51.052;13.772;2022-09-09T00:28:13;99798.06;;;13.80;93.88
19114;BME280;9689;51.052;13.772;2022-09-09T00:33:20;99798.25;;;13.73;94.14
19114;BME280;9689;51.052;13.772;2022-09-09T00:38:25;99797.59;;;13.68;94.20
19114;BME280;9689;51.052;13.772;2022-09-09T00:43:29;99804.66;;;13.62;95.05
19114;BME280;9689;51.052;13.772;2022-09-09T00:48:35;99802.09;;;13.62;94.79
19114;BME280;9689;51.052;13.772;2022-09-09T00:53:59;99791.00;;;13.59;95.25
19114;BME280;9689;51.052;13.772;2022-09-09T00:59:14;99811.59;;;13.61;95.02
19114;BME280;9689;51.052;13.772;2022-09-09T01:04:25;99809.13;;;13.56;94.44
19114;BME280;9689;51.052;13.772;2022-09-09T01:09:36;99812.47;;;13.60;94.12
19114;BME280;9689;51.052;13.772;2022-09-09T01:14:47;99807.50;;;13.54;94.42
19114;BME280;9689;51.052;13.772;2022-09-09T01:20:00;99815.16;;;13.57;94.73
19114;BME280;9689;51.052;13.772;2022-09-09T01:25:29;99816.75;;;13.61;94.32
19114;BME280;9689;51.052;13.772;2022-09-09T01:30:42;99810.31;;;13.46;93.14
19114;BME280;9689;51.052;13.772;2022-09-09T01:35:51;99807.41;;;13.57;93.49
19114;BME280;9689;51.052;13.772;2022-09-09T01:40:56;99804.81;;;13.57;93.18
19114;BME280;9689;51.052;13.772;2022-09-09T01:46:09;99804.22;;;13.49;93.40
19114;BME280;9689;51.052;13.772;2022-09-09T01:51:13;99801.50;;;13.53;92.94
19114;BME280;9689;51.052;13.772;2022-09-09T01:56:24;99799.22;;;13.42;93.54
19114;BME280;9689;51.052;13.772;2022-09-09T02:01:41;99801.97;;;13.38;94.13
19114;BME280;9689;51.052;13.772;2022-09-09T02:06:48;99791.09;;;13.28;93.85
19114;BME280;9689;51.052;13.772;2022-09-09T02:12:00;99796.13;;;13.31;93.99
19114;BME280;9689;51.052;13.772;2022-09-09T02:17:17;99801.22;;;13.34;93.80
19114;BME280;9689;51.052;13.772;2022-09-09T02:22:31;99800.53;;;13.27;94.45
19114;BME280;9689;51.052;13.772;2022-09-09T02:27:34;99806.56;;;13.28;93.93
19114;BME280;9689;51.052;13.772;2022-09-09T02:32:38;99799.06;;;13.20;93.48
19114;BME280;9689;51.052;13.772;2022-09-09T02:37:44;99804.22;;;13.20;93.12
19114;BME280;9689;51.052;13.772;2022-09-09T02:42:48;99805.31;;;13.11;93.73
19114;BME280;9689;51.052;13.772;2022-09-09T02:47:59;99796.81;;;13.09;93.12
19114;BME280;9689;51.052;13.772;2022-09-09T02:53:10;99800.16;;;13.11;93.39
19114;BME280;9689;51.052;13.772;2022-09-09T02:58:17;99801.13;;;13.09;93.62
19114;BME280;9689;51.052;13.772;2022-09-09T03:03:37;99801.97;;;13.09;93.59
19114;BME280;9689;51.052;13.772;2022-09-09T03:08:43;99802.06;;;13.06;94.27
19114;BME280;9689;51.052;13.772;2022-09-09T03:13:53;99809.13;;;12.99;93.87
19114;BME280;9689;51.052;13.772;2022-09-09T03:18:58;99801.25;;;13.04;92.46
19114;BME280;9689;51.052;13.772;2022-09-09T03:24:00;99810.19;;;12.92;93.49
19114;BME280;9689;51.052;13.772;2022-09-09T03:29:03;99819.75;;;12.88;93.05
19114;BME280;9689;51.052;13.772;2022-09-09T03:34:08;99811.56;;;12.74;93.24
19114;BME280;9689;51.052;13.772;2022-09-09T03:39:08;99812.81;;;12.90;93.66
19114;BME280;9689;51.052;13.772;2022-09-09T03:44:13;99810.34;;;12.87;93.06
19114;BME280;9689;51.052;13.772;2022-09-09T03:49:16;99805.28;;;12.84;92.87
19114;BME280;9689;51.052;13.772;2022-09-09T03:54:17;99812.50;;;12.71;94.13
19114;BME280;9689;51.052;13.772;2022-09-09T03:59:19;99810.81;;;12.70;93.29
19114;BME280;9689;51.052;13.772;2022-09-09T04:04:22;99810.09;;;12.65;94.22
19114;BME280;9689;51.052;13.772;2022-09-09T04:09:22;99802.91;;;12.46;94.42
19114;BME280;9689;51.052;13.772;2022-09-09T04:14:24;99814.13;;;12.44;94.23
19114;BME280;9689;51.052;13.772;2022-09-09T04:19:30;99823.41;;;12.49;94.51
19114;BME280;9689;51.052;13.772;2022-09-09T04:24:31;99813.97;;;12.50;94.72
19114;BME280;9689;51.052;13.772;2022-09-09T04:29:32;99822.69;;;12.44;94.57
19114;BME280;9689;51.052;13.772;2022-09-09T04:34:35;99819.13;;;12.50;95.06
19114;BME280;9689;51.052;13.772;2022-09-09T04:39:36;99820.63;;;12.57;94.70
19114;BME280;9689;51.052;13.772;2022-09-09T04:44:38;99827.53;;;12.55;94.63
19114;BME280;9689;51.052;13.772;2022-09-09T04:49:41;99820.25;;;12.70;94.00
19114;BME280;9689;51.052;13.772;2022-09-09T04:54:42;99818.25;;;12.81;92.88
19114;BME280;9689;51.052;13.772;2022-09-09T04:59:44;99823.13;;;12.90;93.24
19114;BME280;9689;51.052;13.772;2022-09-09T05:04:46;99822.00;;;12.99;92.68
19114;BME280;9689;51.052;13.772;2022-09-09T05:09:49;99826.06;;;13.08;92.07
19114;BME280;9689;51.052;13.772;2022-09-09T05:14:50;99826.34;;;13.27;91.24
19114;BME280;9689;51.052;13.772;2022-09-09T05:19:52;99830.38;;;13.36;90.59
19114;BME280;9689;51.052;13.772;2022-09-09T05:24:53;99833.41;;;13.51;90.40
19114;BME280;9689;51.052;13.772;2022-09-09T05:29:54;99838.28;;;13.60;89.54
19114;BME280;9689;51.052;13.772;2022-09-09T05:34:57;99828.56;;;13.68;89.16
19114;BME280;9689;51.052;13.772;2022-09-09T05:39:58;99843.19;;;13.95;87.74
19114;BME280;9689;51.052;13.772;2022-09-09T05:45:00;99849.63;;;14.08;87.26
19114;BME280;9689;51.052;13.772;2022-09-09T05:50:02;99846.09;;;14.36;86.14
19114;BME280;9689;51.052;13.772;2022-09-09T05:55:04;99861.03;;;14.52;84.93
19114;BME280;9689;51.052;13.772;2022-09-09T06:00:07;99868.00;;;14.75;85.08
19114;BME280;9689;51.052;13.772;2022-09-09T06:05:13;99868.19;;;14.94;83.02
19114;BME280;9689;51.052;13.772;2022-09-09T06:10:15;99864.63;;;14.97;82.53
19114;BME280;9689;51.052;13.772;2022-09-09T06:15:15;99864.19;;;15.09;81.98
19114;BME280;9689;51.052;13.772;2022-09-09T06:20:18;99867.81;;;15.05;82.75
19114;BME280;9689;51.052;13.772;2022-09-09T06:25:19;99868.75;;;15.03;82.18
19114;BME280;9689;51.052;13.772;2022-09-09T06:30:20;99862.28;;;15.15;82.41
19114;BME280;9689;51.052;13.772;2022-09-09T06:35:22;99866.00;;;15.07;82.80
19114;BME280;9689;51.052;13.772;2022-09-09T06:40:23;99859.16;;;15.06;82.53
19114;BME280;9689;51.052;13.772;2022-09-09T06:45:25;99863.44;;;15.30;82.49
19114;BME280;9689;51.052;13.772;2022-09-09T06:50:31;99864.25;;;15.54;81.08
19114;BME280;9689;51.052;13.772;2022-09-09T06:55:31;99852.16;;;15.98;79.71
19114;BME280;9689;51.052;13.772;2022-09-09T07:00:33;99856.59;;;16.16;77.97
19114;BME280;9689;51.052;13.772;2022-09-09T07:05:35;99854.88;;;16.57;76.93
19114;BME280;9689;51.052;13.772;2022-09-09T07:10:36;99856.97;;;17.08;75.28
19114;BME280;9689;51.052;13.772;2022-09-09T07:15:37;99849.09;;;17.46;73.75
19114;BME280;9689;51.052;13.772;2022-09-09T07:20:39;99854.13;;;17.69;73.27
19114;BME280;9689;51.052;13.772;2022-09-09T07:25:44;99847.16;;;17.51;72.34
19114;BME280;9689;51.052;13.772;2022-09-09T07:30:53;99860.06;;;17.71;72.50
19114;BME280;9689;51.052;13.772;2022-09-09T07:36:03;99856.34;;;17.94;71.70
19114;BME280;9689;51.052;13.772;2022-09-09T07:41:05;99851.94;;;17.96;71.38
19114;BME280;9689;51.052;13.772;2022-09-09T07:46:09;99854.91;;;17.88;71.99
19114;BME280;9689;51.052;13.772;2022-09-09T07:51:14;99863.31;;;17.93;71.71
19114;BME280;9689;51.052;13.772;2022-09-09T07:56:18;99858.06;;;18.13;71.48
19114;BME280;9689;51.052;13.772;2022-09-09T08:01:20;99863.06;;;18.51;69.96
19114;BME280;9689;51.052;13.772;2022-09-09T08:06:23;99867.72;;;19.12;68.68
19114;BME280;9689;51.052;13.772;2022-09-09T08:11:26;99869.97;;;19.81;66.82
19114;BME280;9689;51.052;13.772;2022-09-09T08:16:29;99867.72;;;20.05;65.90
19114;BME280;9689;51.052;13.772;2022-09-09T08:21:34;99869.44;;;20.06;66.72
19114;BME280;9689;51.052;13.772;2022-09-09T08:26:38;99873.41;;;19.35;70.59
19114;BME280;9689;51.052;13.772;2022-09-09T08:31:40;99881.78;;;19.08;72.08
19114;BME280;9689;51.052;13.772;2022-09-09T08:36:45;99872.31;;;19.39;71.19
19114;BME280;9689;51.052;13.772;2022-09-09T08:47:18;99872.00;;;20.37;68.40
19114;BME280;9689;51.052;13.772;2022-09-09T08:52:28;99884.47;;;20.46;67.29
19114;BME280;9689;51.052;13.772;2022-09-09T08:57:30;99878.50;;;21.02;65.67
19114;BME280;9689;51.052;13.772;2022-09-09T09:02:39;99885.84;;;21.52;65.02
19114;BME280;9689;51.052;13.772;2022-09-09T09:07:56;99877.78;;;21.70;64.15
19114;BME280;9689;51.052;13.772;2022-09-09T09:13:03;99875.81;;;21.04;66.60
19114;BME280;9689;51.052;13.772;2022-09-09T09:18:05;99885.03;;;20.81;67.20
19114;BME280;9689;51.052;13.772;2022-09-09T09:23:16;99892.38;;;20.59;69.00
19114;BME280;9689;51.052;13.772;2022-09-09T09:28:24;99921.59;;;19.74;72.43
19114;BME280;9689;51.052;13.772;2022-09-09T09:33:35;99912.16;;;18.40;79.64
19114;BME280;9689;51.052;13.772;2022-09-09T09:38:52;99914.22;;;17.61;86.63
19114;BME280;9689;51.052;13.772;2022-09-09T09:44:27;99908.13;;;17.62;86.83
19114;BME280;9689;51.052;13.772;2022-09-09T09:49:35;99911.06;;;17.91;86.13
19114;BME280;9689;51.052;13.772;2022-09-09T09:54:41;99908.13;;;18.16;86.66
19114;BME280;9689;51.052;13.772;2022-09-09T09:59:42;99904.84;;;18.13;87.01
19114;BME280;9689;51.052;13.772;2022-09-09T10:05:00;99898.41;;;18.38;84.71
19114;BME280;9689;51.052;13.772;2022-09-09T10:10:04;99897.91;;;18.65;84.18
19114;BME280;9689;51.052;13.772;2022-09-09T10:15:17;99890.66;;;18.87;83.72
19114;BME280;9689;51.052;13.772;2022-09-09T10:20:32;99886.63;;;18.98;82.72
19114;BME280;9689;51.052;13.772;2022-09-09T10:25:49;99886.88;;;19.27;81.11
19114;BME280;9689;51.052;13.772;2022-09-09T10:31:04;99880.31;;;19.20;79.76
19114;BME280;9689;51.052;13.772;2022-09-09T10:36:12;99877.19;;;19.29;79.50
19114;BME280;9689;51.052;13.772;2022-09-09T10:41:24;99878.19;;;19.26;78.27
19114;BME280;9689;51.052;13.772;2022-09-09T10:46:45;99870.38;;;19.42;76.80
19114;BME280;9689;51.052;13.772;2022-09-09T10:51:59;99867.31;;;19.66;75.19
19114;BME280;9689;51.052;13.772;2022-09-09T10:57:08;99852.00;;;19.76;72.64
19114;BME280;9689;51.052;13.772;2022-09-09T11:02:16;99840.34;;;19.98;70.92
19114;BME280;9689;51.052;13.772;2022-09-09T11:07:26;99839.19;;;20.18;69.26
19114;BME280;9689;51.052;13.772;2022-09-09T11:12:30;99832.84;;;20.22;68.76
19114;BME280;9689;51.052;13.772;2022-09-09T11:17:39;99835.00;;;20.30;68.01
19114;BME280;9689;51.052;13.772;2022-09-09T11:22:46;99836.22;;;20.68;68.05
19114;BME280;9689;51.052;13.772;2022-09-09T11:28:06;99845.63;;;20.56;68.94
19114;BME280;9689;51.052;13.772;2022-09-09T11:38:47;99827.81;;;20.48;71.75
19114;BME280;9689;51.052;13.772;2022-09-09T11:43:52;99814.97;;;21.44;68.05
19114;BME280;9689;51.052;13.772;2022-09-09T11:48:59;99811.75;;;22.20;65.44
19114;BME280;9689;51.052;13.772;2022-09-09T11:54:01;99814.72;;;21.62;63.72
19114;BME280;9689;51.052;13.772;2022-09-09T11:59:05;99817.59;;;21.57;65.92
19114;BME280;9689;51.052;13.772;2022-09-09T12:09:43;99807.72;;;20.65;75.56
19114;BME280;9689;51.052;13.772;2022-09-09T12:14:58;99803.19;;;20.82;75.50
19114;BME280;9689;51.052;13.772;2022-09-09T12:20:02;99789.56;;;21.33;70.18
19114;BME280;9689;51.052;13.772;2022-09-09T12:25:16;99783.38;;;21.88;68.89
19114;BME280;9689;51.052;13.772;2022-09-09T12:30:28;99789.31;;;21.64;68.03
19114;BME280;9689;51.052;13.772;2022-09-09T12:35:31;99785.91;;;21.36;67.72
19114;BME280;9689;51.052;13.772;2022-09-09T12:40:33;99782.78;;;21.43;67.05
19114;BME280;9689;51.052;13.772;2022-09-09T12:45:40;99776.81;;;22.21;63.33
19114;BME280;9689;51.052;13.772;2022-09-09T12:50:44;99777.59;;;22.60;60.95
19114;BME280;9689;51.052;13.772;2022-09-09T12:55:50;99778.28;;;22.51;61.72
19114;BME280;9689;51.052;13.772;2022-09-09T13:00:54;99768.91;;;22.60;61.18
19114;BME280;9689;51.052;13.772;2022-09-09T13:05:58;99759.06;;;22.63;60.83
19114;BME280;9689;51.052;13.772;2022-09-09T13:11:02;99750.09;;;22.41;60.01
19114;BME280;9689;51.052;13.772;2022-09-09T13:16:16;99749.09;;;22.05;60.92
19114;BME280;9689;51.052;13.772;2022-09-09T13:21:19;99743.66;;;22.72;58.04
19114;BME280;9689;51.052;13.772;2022-09-09T13:26:22;99734.72;;;23.59;56.14
19114;BME280;9689;51.052;13.772;2022-09-09T13:31:29;99729.66;;;24.26;52.99
19114;BME280;9689;51.052;13.772;2022-09-09T13:36:33;99730.63;;;23.43;54.13
19114;BME280;9689;51.052;13.772;2022-09-09T13:41:36;99738.69;;;23.04;54.73
19114;BME280;9689;51.052;13.772;2022-09-09T13:46:44;99741.09;;;22.46;52.02
19114;BME280;9689;51.052;13.772;2022-09-09T13:51:47;99746.66;;;22.28;53.25
19114;BME280;9689;51.052;13.772;2022-09-09T13:56:50;99743.53;;;22.23;54.18
19114;BME280;9689;51.052;13.772;2022-09-09T14:01:52;99756.06;;;22.31;53.42
19114;BME280;9689;51.052;13.772;2022-09-09T14:06:54;99739.34;;;22.33;53.15
19114;BME280;9689;51.052;13.772;2022-09-09T14:11:55;99736.69;;;22.46;54.38
19114;BME280;9689;51.052;13.772;2022-09-09T14:16:59;99738.72;;;22.80;53.86
19114;BME280;9689;51.052;13.772;2022-09-09T14:22:05;99728.53;;;23.24;52.53
19114;BME280;9689;51.052;13.772;2022-09-09T14:27:06;99712.50;;;23.40;50.86
19114;BME280;9689;51.052;13.772;2022-09-09T14:32:08;99710.44;;;23.68;49.96
19114;BME280;9689;51.052;13.772;2022-09-09T14:37:11;99706.34;;;23.53;51.09
19114;BME280;9689;51.052;13.772;2022-09-09T14:42:13;99699.66;;;23.37;51.23
19114;BME280;9689;51.052;13.772;2022-09-09T14:47:15;99700.28;;;23.16;51.82
19114;BME280;9689;51.052;13.772;2022-09-09T14:52:16;99706.03;;;23.21;51.90
19114;BME280;9689;51.052;13.772;2022-09-09T14:57:17;99707.22;;;22.93;52.99
19114;BME280;9689;51.052;13.772;2022-09-09T15:02:19;99703.50;;;22.47;54.58
19114;BME280;9689;51.052;13.772;2022-09-09T15:07:19;99717.16;;;22.26;56.52
19114;BME280;9689;51.052;13.772;2022-09-09T15:12:21;99704.91;;;22.39;53.91
19114;BME280;9689;51.052;13.772;2022-09-09T15:17:23;99705.59;;;22.41;54.05
19114;BME280;9689;51.052;13.772;2022-09-09T15:22:25;99705.22;;;22.35;55.37
19114;BME280;9689;51.052;13.772;2022-09-09T15:27:26;99720.72;;;22.51;55.32
19114;BME280;9689;51.052;13.772;2022-09-09T15:32:27;99717.00;;;23.02;55.84
19114;BME280;9689;51.052;13.772;2022-09-09T15:37:28;99715.59;;;22.74;57.34
19114;BME280;9689;51.052;13.772;2022-09-09T15:42:29;99730.00;;;22.42;60.05
19114;BME280;9689;51.052;13.772;2022-09-09T15:47:31;99737.56;;;22.21;61.68
19114;BME280;9689;51.052;13.772;2022-09-09T15:52:32;99724.38;;;21.57;63.86
19114;BME280;9689;51.052;13.772;2022-09-09T15:57:33;99717.84;;;21.24;64.98
19114;BME280;9689;51.052;13.772;2022-09-09T16:02:35;99712.16;;;21.04;63.93
19114;BME280;9689;51.052;13.772;2022-09-09T16:07:36;99709.56;;;21.04;64.46
19114;BME280;9689;51.052;13.772;2022-09-09T16:12:37;99719.34;;;20.73;65.52
19114;BME280;9689;51.052;13.772;2022-09-09T16:17:40;99719.00;;;20.65;66.38
19114;BME280;9689;51.052;13.772;2022-09-09T16:22:40;99722.28;;;20.54;66.83
19114;BME280;9689;51.052;13.772;2022-09-09T16:27:41;99711.72;;;20.28;67.44
19114;BME280;9689;51.052;13.772;2022-09-09T16:32:44;99724.13;;;20.52;66.42
19114;BME280;9689;51.052;13.772;2022-09-09T16:37:45;99736.50;;;21.05;64.77
19114;BME280;9689;51.052;13.772;2022-09-09T16:42:45;99734.06;;;21.29;63.40
19114;BME280;9689;51.052;13.772;2022-09-09T16:47:47;99740.81;;;21.19;61.89
19114;BME280;9689;51.052;13.772;2022-09-09T16:52:48;99750.34;;;21.20;61.71
19114;BME280;9689;51.052;13.772;2022-09-09T16:57:48;99744.34;;;21.05;61.38
19114;BME280;9689;51.052;13.772;2022-09-09T17:02:50;99757.44;;;21.18;61.86
19114;BME280;9689;51.052;13.772;2022-09-09T17:07:51;99759.84;;;20.94;63.29
19114;BME280;9689;51.052;13.772;2022-09-09T17:12:52;99762.97;;;20.57;64.47
19114;BME280;9689;51.052;13.772;2022-09-09T17:17:54;99766.88;;;19.91;67.30
19114;BME280;9689;51.052;13.772;2022-09-09T17:22:54;99763.53;;;19.44;69.76
19114;BME280;9689;51.052;13.772;2022-09-09T17:27:55;99771.06;;;19.02;72.56
19114;BME280;9689;51.052;13.772;2022-09-09T17:32:58;99770.28;;;18.68;73.86
19114;BME280;9689;51.052;13.772;2022-09-09T17:37:59;99781.22;;;18.58;75.38
19114;BME280;9689;51.052;13.772;2022-09-09T17:42:59;99772.09;;;18.33;76.25
19114;BME280;9689;51.052;13.772;2022-09-09T17:48:02;99778.88;;;18.02;77.01
19114;BME280;9689;51.052;13.772;2022-09-09T17:53:03;99781.47;;;17.85;78.51
19114;BME280;9689;51.052;13.772;2022-09-09T17:58:04;99804.63;;;17.89;76.43
19114;BME280;9689;51.052;13.772;2022-09-09T18:03:05;99813.78;;;17.61;78.73
19114;BME280;9689;51.052;13.772;2022-09-09T18:08:06;99823.94;;;17.66;78.63
19114;BME280;9689;51.052;13.772;2022-09-09T18:13:07;99835.19;;;17.66;78.88
19114;BME280;9689;51.052;13.772;2022-09-09T18:18:09;99841.81;;;17.55;80.20
19114;BME280;9689;51.052;13.772;2022-09-09T18:23:10;99831.84;;;17.45;81.09
19114;BME280;9689;51.052;13.772;2022-09-09T18:28:10;99836.28;;;17.43;81.36
19114;BME280;9689;51.052;13.772;2022-09-09T18:33:13;99824.53;;;17.36;82.23
19114;BME280;9689;51.052;13.772;2022-09-09T18:38:14;99820.25;;;17.35;82.10
19114;BME280;9689;51.052;13.772;2022-09-09T18:43:15;99821.06;;;17.35;82.39
19114;BME280;9689;51.052;13.772;2022-09-09T18:48:18;99836.75;;;17.34;81.99
19114;BME280;9689;51.052;13.772;2022-09-09T18:53:19;99842.63;;;17.18;82.85
19114;BME280;9689;51.052;13.772;2022-09-09T18:58:21;99842.09;;;17.11;83.47
19114;BME280;9689;51.052;13.772;2022-09-09T19:03:25;99843.22;;;17.06;83.41
19114;BME280;9689;51.052;13.772;2022-09-09T19:08:26;99847.75;;;17.01;83.53
19114;BME280;9689;51.052;13.772;2022-09-09T19:13:27;99845.06;;;16.83;84.23
19114;BME280;9689;51.052;13.772;2022-09-09T19:18:29;99842.75;;;16.77;84.72
19114;BME280;9689;51.052;13.772;2022-09-09T19:23:30;99846.91;;;16.81;84.72
19114;BME280;9689;51.052;13.772;2022-09-09T19:28:31;99845.22;;;16.80;84.47
19114;BME280;9689;51.052;13.772;2022-09-09T19:33:34;99853.06;;;16.78;84.64
19114;BME280;9689;51.052;13.772;2022-09-09T19:38:35;99846.03;;;16.80;84.60
19114;BME280;9689;51.052;13.772;2022-09-09T19:43:36;99858.81;;;16.85;83.78
19114;BME280;9689;51.052;13.772;2022-09-09T19:48:40;99864.28;;;16.79;84.05
19114;BME280;9689;51.052;13.772;2022-09-09T19:53:42;99854.03;;;16.76;84.54
19114;BME280;9689;51.052;13.772;2022-09-09T19:58:45;99858.31;;;16.77;84.66
19114;BME280;9689;51.052;13.772;2022-09-09T20:03:49;99860.78;;;16.80;85.74
19114;BME280;9689;51.052;13.772;2022-09-09T20:08:51;99862.88;;;16.71;85.93
19114;BME280;9689;51.052;13.772;2022-09-09T20:13:52;99876.16;;;16.64;86.13
19114;BME280;9689;51.052;13.772;2022-09-09T20:18:56;99879.41;;;16.69;86.11
19114;BME280;9689;51.052;13.772;2022-09-09T20:23:58;99873.50;;;16.65;85.53
19114;BME280;9689;51.052;13.772;2022-09-09T20:29:00;99880.66;;;16.60;86.18
19114;BME280;9689;51.052;13.772;2022-09-09T20:34:05;99880.66;;;16.60;85.58
19114;BME280;9689;51.052;13.772;2022-09-09T20:39:09;99880.59;;;16.62;85.18
19114;BME280;9689;51.052;13.772;2022-09-09T20:44:11;99888.38;;;16.62;85.30
19114;BME280;9689;51.052;13.772;2022-09-09T20:49:16;99892.19;;;16.53;85.62
19114;BME280;9689;51.052;13.772;2022-09-09T20:54:18;99899.25;;;16.49;85.86
19114;BME280;9689;51.052;13.772;2022-09-09T20:59:21;99899.97;;;16.53;85.80
19114;BME280;9689;51.052;13.772;2022-09-09T21:04:24;99895.91;;;16.47;86.19
19114;BME280;9689;51.052;13.772;2022-09-09T21:09:24;99903.22;;;16.58;85.82
19114;BME280;9689;51.052;13.772;2022-09-09T21:14:25;99906.97;;;16.51;86.36
19114;BME280;9689;51.052;13.772;2022-09-09T21:19:27;99905.16;;;16.53;86.89
19114;BME280;9689;51.052;13.772;2022-09-09T21:24:28;99901.78;;;16.51;86.67
19114;BME280;9689;51.052;13.772;2022-09-09T21:29:29;99905.09;;;16.34;87.26
19114;BME280;9689;51.052;13.772;2022-09-09T21:34:32;99898.81;;;16.39;86.32
19114;BME280;9689;51.052;13.772;2022-09-09T21:39:35;99897.63;;;16.47;85.48
19114;BME280;9689;51.052;13.772;2022-09-09T21:44:39;99900.38;;;16.43;85.66
19114;BME280;9689;51.052;13.772;2022-09-09T21:49:41;99903.28;;;16.36;85.04
19114;BME280;9689;51.052;13.772;2022-09-09T21:54:42;99901.81;;;16.30;84.84
19114;BME280;9689;51.052;13.772;2022-09-09T21:59:43;99895.44;;;16.16;85.29
19114;BME280;9689;51.052;13.772;2022-09-09T22:04:44;99899.31;;;16.06;85.47
19114;BME280;9689;51.052;13.772;2022-09-09T22:09:45;99893.94;;;15.88;86.71
19114;BME280;9689;51.052;13.772;2022-09-09T22:14:46;99891.19;;;15.71;87.63
19114;BME280;9689;51.052;13.772;2022-09-09T22:19:48;99888.31;;;15.56;88.56
19114;BME280;9689;51.052;13.772;2022-09-09T22:24:49;99886.50;;;15.58;88.60
19114;BME280;9689;51.052;13.772;2022-09-09T22:29:50;99887.44;;;15.56;88.63
19114;BME280;9689;51.052;13.772;2022-09-09T22:34:52;99885.91;;;15.52;88.75
19114;BME280;9689;51.052;13.772;2022-09-09T22:39:52;99880.09;;;15.45;89.33
19114;BME280;9689;51.052;13.772;2022-09-09T22:44:53;99882.16;;;15.36;89.66
19114;BME280;9689;51.052;13.772;2022-09-09T22:49:55;99883.16;;;15.32;89.93
19114;BME280;9689;51.052;13.772;2022-09-09T22:54:56;99866.69;;;15.13;90.80
19114;BME280;9689;51.052;13.772;2022-09-09T22:59:57;99869.03;;;15.19;90.69
19114;BME280;9689;51.052;13.772;2022-09-09T23:04:59;99859.88;;;15.10;90.65
19114;BME280;9689;51.052;13.772;2022-09-09T23:10:03;99857.22;;;15.12;90.02
19114;BME280;9689;51.052;13.772;2022-09-09T23:15:05;99854.03;;;15.05;90.03
19114;BME280;9689;51.052;13.772;2022-09-09T23:20:10;99854.31;;;14.97;90.22
19114;BME280;9689;51.052;13.772;2022-09-09T23:25:10;99852.25;;;14.83;90.93
19114;BME280;9689;51.052;13.772;2022-09-09T23:30:12;99863.41;;;14.84;90.24
19114;BME280;9689;51.052;13.772;2022-09-09T23:35:14;99867.97;;;14.77;90.53
19114;BME280;9689;51.052;13.772;2022-09-09T23:40:15;99867.84;;;14.80;90.28
19114;BME280;9689;51.052;13.772;2022-09-09T23:45:15;99867.31;;;14.70;90.30
19114;BME280;9689;51.052;13.772;2022-09-09T23:50:18;99863.94;;;14.68;90.39
19114;BME280;9689;51.052;13.772;2022-09-09T23:55:19;99871.22;;;14.57;90.72
